Aérodrome :
LOGIN :

S'inscrire | Disclaimer

   EN    FR    IT 

 










Légende :    VFR   VFR Marginal   IFR   IFR Intensif   IFR Très Intensif
Visi : 
Plafond : 
>= 8 km
>= 3000ft
5 à 8 km
1000 à 3000 ft
1500m à 5 km
500 à 1000 ft
800 à 1500m
200 à 500 ft
< 800m
< 200 ft
Symboles :   Orages  Brouillard  Fortes neiges  Fortes précipitations  Vent > 20 kt
SIGMETs :   Divers  Orages  Givrage  Turbulence  Onde Orograph.  Cendres Volcan.






- Altitude de l'aérodrome : 505 ft
- Code IATA : SXB


LFST - Strasbourg

DERNIER METAR :
  • 031030Z AUTO 20009KT 160V230 9999 ///CB 25/14 Q1006 TEMPO VRB15G30KT 2000 TSRA

METARs EXPIRÉS :
  • 031000Z AUTO 13003KT 070V220 9999 VCTS ///CB 25/13 Q1006 TEMPO 4000 SHRA
  • 030930Z AUTO VRB03KT 9999 ///TCU 25/14 Q1006 TEMPO 4000 SHRA FEW050CB
  • 030900Z AUTO 19003KT 140V220 9999 ///TCU 23/13 Q1006 TEMPO NSC
  • 030830Z AUTO 19004KT 130V230 CAVOK 24/14 Q1007 BECMG FEW050TCU
  • 030800Z AUTO 20005KT 160V230 CAVOK 22/13 Q1007 NOSIG
  • 030730Z AUTO 18005KT 150V220 CAVOK 21/13 Q1007 NOSIG

TAF AMD TAF LFST
Valide du 03 à 10h jusqu'au 04 à 06h UTC


031016Z 0310/0406 19004KT 9999 FEW050TCU
TEMPO 0310/0406 4000 SHRA FEW050CB
PROB40
TEMPO 0310/0406 VRB15G30KT 2000 TSRA BKN035 SCT050CB



MET'MAP, la Météo Aéronautique d'un coup d'oeil ! - Copyright ORBIFLY Décembre 2007 - Disclaimer

ORBIFLY MET'MAP TEAM :

Programmation & Développement : Alexandra Zaïnal
Sur une idée originale de : Baudouin d'Aumeries
Assistance à la programmation : Marc-Olivier Méhu
Soutien technique & logistique : Manuel Goepfert

Contact : metmap@orbifly.com




SOURCES & CREDITS :

   NOAA